createdAt,value
2023-03-29T00:02:49.429Z,98743.53
2023-03-29T00:05:57.745Z,98739.94
2023-03-29T00:09:21.925Z,98739.94
2023-03-29T00:12:27.183Z,98730.47
2023-03-29T00:15:31.655Z,98743.88
2023-03-29T00:18:38.649Z,98751.31
2023-03-29T00:21:44.775Z,98742.06
2023-03-29T00:24:57.724Z,98742.34
2023-03-29T00:28:02.640Z,98749.47
2023-03-29T00:31:09.357Z,98735.63
2023-03-29T00:34:16.599Z,98749.38
2023-03-29T00:37:27.217Z,98747.75
2023-03-29T00:40:36.372Z,98734.72
2023-03-29T00:43:56.057Z,98743.31
2023-03-29T00:47:00.938Z,98756.91
2023-03-29T00:50:14.690Z,98742.63
2023-03-29T00:53:23.140Z,98747.38
2023-03-29T00:56:37.629Z,98750.94
2023-03-29T00:59:44.614Z,98752.09
2023-03-29T01:02:54.981Z,98757.69
2023-03-29T01:06:04.213Z,98734.06
2023-03-29T01:09:13.225Z,98734.84
2023-03-29T01:12:22.528Z,98728.53
2023-03-29T01:15:30.815Z,98730.91
2023-03-29T01:18:37.769Z,98718.66
2023-03-29T01:21:49.647Z,98721.81
2023-03-29T01:25:07.977Z,98716.25
2023-03-29T01:28:20.816Z,98721.44
2023-03-29T01:31:29.109Z,98721.06
2023-03-29T01:34:40.593Z,98710.06
2023-03-29T01:37:53.127Z,98715.59
2023-03-29T01:40:58.939Z,98700.31
2023-03-29T01:44:10.473Z,98710.53
2023-03-29T01:47:25.455Z,98703.91
2023-03-29T01:50:39.949Z,98705.09
2023-03-29T01:53:50.918Z,98705.53
2023-03-29T01:56:58.270Z,98703.59
2023-03-29T02:00:11.322Z,98703.59
2023-03-29T02:03:22.114Z,98707.97
2023-03-29T02:06:29.736Z,98703.63
2023-03-29T02:09:38.069Z,98709.88
2023-03-29T02:12:42.788Z,98710.75
2023-03-29T02:15:50.531Z,98700.84
2023-03-29T02:18:58.236Z,98703.25
2023-03-29T02:22:06.784Z,98703.66
2023-03-29T02:25:13.945Z,98702.50
2023-03-29T02:28:19.031Z,98707.31
2023-03-29T02:31:29.815Z,98693.13
2023-03-29T02:34:40.304Z,98696.34
2023-03-29T02:37:49.676Z,98692.47
2023-03-29T02:40:55.962Z,98691.69
2023-03-29T02:44:05.206Z,98687.41
2023-03-29T02:47:18.628Z,98697.22
2023-03-29T02:50:25.035Z,98690.94
2023-03-29T02:53:35.083Z,98704.31
2023-03-29T02:56:48.508Z,98711.75
2023-03-29T02:59:54.345Z,98716.16
2023-03-29T03:03:02.107Z,98713.03
2023-03-29T03:06:10.710Z,98724.06
2023-03-29T03:09:15.756Z,98719.75
2023-03-29T03:12:23.239Z,98724.47
2023-03-29T03:15:28.316Z,98730.41
2023-03-29T03:18:35.713Z,98731.94
2023-03-29T03:21:40.300Z,98737.91
2023-03-29T03:24:48.161Z,98739.13
2023-03-29T03:27:55.590Z,98731.25
2023-03-29T03:31:01.532Z,98739.94
2023-03-29T03:34:26.797Z,98746.22
2023-03-29T03:37:36.025Z,98739.16
2023-03-29T03:40:44.460Z,98745.06
2023-03-29T03:43:50.181Z,98745.88
2023-03-29T03:46:55.253Z,98747.47
2023-03-29T03:50:00.602Z,98751.00
2023-03-29T03:53:05.723Z,98749.44
2023-03-29T03:56:32.409Z,98756.53
2023-03-29T03:59:49.261Z,98752.19
2023-03-29T04:03:02.564Z,98750.63
2023-03-29T04:06:10.402Z,98759.25
2023-03-29T04:09:46.073Z,98745.50
2023-03-29T04:13:04.765Z,98764.78
2023-03-29T04:16:13.143Z,98760.44
2023-03-29T04:19:21.988Z,98764.00
2023-03-29T04:22:28.137Z,98758.88
2023-03-29T04:25:32.643Z,98759.66
2023-03-29T04:28:39.099Z,98757.69
2023-03-29T04:31:58.038Z,98755.75
2023-03-29T04:35:27.373Z,98763.59
2023-03-29T04:38:36.326Z,98765.97
2023-03-29T04:41:41.660Z,98768.72
2023-03-29T04:44:57.659Z,98775.78
2023-03-29T04:48:17.274Z,98789.91
2023-03-29T04:51:24.830Z,98794.22
2023-03-29T04:54:32.501Z,98790.16
2023-03-29T04:57:51.536Z,98790.88
2023-03-29T05:00:59.504Z,98796.63
2023-03-29T05:04:12.982Z,98794.44
2023-03-29T05:07:27.716Z,98790.31
2023-03-29T05:10:33.596Z,98798.00
2023-03-29T05:13:37.880Z,98797.06
2023-03-29T05:16:42.882Z,98793.72
2023-03-29T05:19:48.147Z,98786.53
2023-03-29T05:23:03.597Z,98793.66
2023-03-29T05:26:35.650Z,98793.31
2023-03-29T05:29:41.421Z,98787.13
2023-03-29T05:33:00.505Z,98787.59
2023-03-29T05:36:09.535Z,98789.09
2023-03-29T05:39:18.965Z,98787.53
2023-03-29T05:42:28.550Z,98788.63
2023-03-29T05:45:36.263Z,98789.47
2023-03-29T05:49:03.621Z,98789.81
2023-03-29T05:52:26.823Z,98792.75
2023-03-29T05:55:31.164Z,98795.25
2023-03-29T05:59:01.401Z,98790.19
2023-03-29T06:02:07.016Z,98801.66
2023-03-29T06:05:16.223Z,98806.59
2023-03-29T06:08:34.225Z,98795.91
2023-03-29T06:12:01.987Z,98810.97
2023-03-29T06:15:16.731Z,98809.88
2023-03-29T06:18:25.353Z,98816.13
2023-03-29T06:21:29.512Z,98816.22
2023-03-29T06:24:36.900Z,98809.53
2023-03-29T06:28:52.200Z,98816.69
2023-03-29T06:31:58.856Z,98815.69
2023-03-29T06:36:38.740Z,98823.94
2023-03-29T06:40:14.696Z,98823.47
2023-03-29T06:43:21.302Z,98830.38
2023-03-29T06:46:43.138Z,98830.50
2023-03-29T06:49:59.707Z,98838.03
2023-03-29T06:53:18.075Z,98842.47
2023-03-29T07:00:45.942Z,98855.38
2023-03-29T07:08:15.615Z,98851.53
2023-03-29T07:11:36.576Z,98848.19
2023-03-29T07:19:09.727Z,98850.41
2023-03-29T07:27:06.041Z,98850.50
2023-03-29T07:30:16.918Z,98846.91
2023-03-29T07:33:25.884Z,98857.88
2023-03-29T07:36:51.720Z,98863.47
2023-03-29T07:39:59.804Z,98862.66
2023-03-29T07:43:38.011Z,98866.84
2023-03-29T07:46:47.589Z,98868.75
2023-03-29T07:49:52.593Z,98868.41
2023-03-29T07:53:38.740Z,98871.44
2023-03-29T07:57:37.178Z,98871.97
2023-03-29T08:09:17.218Z,98861.25
2023-03-29T08:12:41.134Z,98854.91
2023-03-29T08:15:53.737Z,98857.50
2023-03-29T08:19:09.555Z,98861.25
2023-03-29T08:22:54.291Z,98852.47
2023-03-29T08:26:24.252Z,98851.44
2023-03-29T08:29:29.481Z,98846.63
2023-03-29T08:32:36.893Z,98850.66
2023-03-29T08:35:46.865Z,98849.50
2023-03-29T08:38:58.603Z,98854.44
2023-03-29T08:42:21.260Z,98839.09
2023-03-29T08:45:35.621Z,98837.66
2023-03-29T08:48:46.848Z,98852.69
2023-03-29T08:51:59.752Z,98842.13
2023-03-29T08:55:09.555Z,98828.84
2023-03-29T08:58:36.233Z,98842.41
2023-03-29T09:01:46.783Z,98839.34
2023-03-29T09:05:03.278Z,98843.63
2023-03-29T09:08:25.026Z,98840.75
2023-03-29T09:11:44.890Z,98841.84
2023-03-29T09:15:12.314Z,98832.84
2023-03-29T09:18:34.278Z,98838.53
2023-03-29T09:21:47.950Z,98840.88
2023-03-29T09:25:07.472Z,98833.06
2023-03-29T09:28:20.499Z,98831.59
2023-03-29T09:31:35.415Z,98825.47
2023-03-29T09:34:46.258Z,98818.69
2023-03-29T09:38:01.670Z,98819.59
2023-03-29T09:41:20.320Z,98816.25
2023-03-29T09:44:31.260Z,98821.38
2023-03-29T09:47:47.286Z,98824.94
2023-03-29T09:50:53.344Z,98808.44
2023-03-29T09:54:01.217Z,98804.13
2023-03-29T09:57:33.629Z,98813.56
2023-03-29T10:00:49.301Z,98822.94
2023-03-29T10:03:54.701Z,98818.91
2023-03-29T10:07:01.567Z,98811.84
2023-03-29T10:10:11.977Z,98811.84
2023-03-29T10:13:24.590Z,98807.09
2023-03-29T10:16:32.021Z,98793.28
2023-03-29T10:19:40.132Z,98794.06
2023-03-29T10:22:51.282Z,98786.16
2023-03-29T10:25:58.015Z,98785.63
2023-03-29T10:29:06.398Z,98781.06
2023-03-29T10:32:20.108Z,98769.25
2023-03-29T10:35:30.624Z,98778.19
2023-03-29T10:38:37.750Z,98772.47
2023-03-29T10:41:45.127Z,98771.69
2023-03-29T10:44:55.724Z,98767.13
2023-03-29T10:48:00.955Z,98756.53
2023-03-29T10:51:07.795Z,98747.63
2023-03-29T10:54:16.173Z,98759.56
2023-03-29T10:57:35.621Z,98744.16
2023-03-29T11:00:51.316Z,98751.91
2023-03-29T11:04:11.520Z,98731.84
2023-03-29T11:07:28.885Z,98718.41
2023-03-29T11:10:44.969Z,98713.81
2023-03-29T11:14:01.650Z,98718.28
2023-03-29T11:17:20.786Z,98712.66
2023-03-29T11:20:38.007Z,98709.53
2023-03-29T11:23:51.437Z,98708.47
2023-03-29T11:27:11.330Z,98701.25
2023-03-29T11:30:27.368Z,98691.56
2023-03-29T11:33:43.276Z,98690.88
2023-03-29T11:36:54.221Z,98692.19
2023-03-29T11:40:10.171Z,98686.31
2023-03-29T11:43:20.696Z,98683.75
2023-03-29T11:46:36.144Z,98685.19
2023-03-29T11:49:49.334Z,98677.84
2023-03-29T11:52:57.883Z,98678.78
2023-03-29T11:56:11.090Z,98674.19
2023-03-29T11:59:20.036Z,98673.34
2023-03-29T12:02:36.896Z,98672.94
2023-03-29T12:05:48.471Z,98669.69
2023-03-29T12:08:58.843Z,98660.16
2023-03-29T12:12:10.456Z,98658.25
2023-03-29T12:15:20.585Z,98662.19
2023-03-29T12:18:32.199Z,98658.94
2023-03-29T12:21:38.996Z,98653.75
2023-03-29T12:24:46.127Z,98657.44
2023-03-29T12:28:07.900Z,98647.72
2023-03-29T12:31:26.278Z,98639.53
2023-03-29T12:34:54.911Z,98634.00
2023-03-29T12:38:24.489Z,98635.72
2023-03-29T12:41:51.963Z,98643.19
2023-03-29T12:45:39.039Z,98640.88
2023-03-29T12:48:57.438Z,98639.59
2023-03-29T13:00:51.237Z,98634.81
2023-03-29T13:04:16.403Z,98625.03
2023-03-29T13:07:34.056Z,98611.22
2023-03-29T13:10:43.613Z,98614.00
2023-03-29T13:13:52.533Z,98617.88
2023-03-29T13:17:18.382Z,98608.84
2023-03-29T13:20:43.510Z,98609.50
2023-03-29T13:24:08.936Z,98608.72
2023-03-29T13:27:30.545Z,98610.13
2023-03-29T13:30:47.641Z,98600.34
2023-03-29T13:34:04.381Z,98610.25
2023-03-29T13:37:34.718Z,98600.66
2023-03-29T13:41:04.723Z,98581.66
2023-03-29T13:44:35.335Z,98586.03
2023-03-29T13:47:58.767Z,98580.72
2023-03-29T13:51:28.457Z,98577.63
2023-03-29T13:54:40.553Z,98567.06
2023-03-29T13:58:07.344Z,98566.47
2023-03-29T14:01:20.589Z,98571.28
2023-03-29T14:04:36.442Z,98560.56
2023-03-29T14:07:46.853Z,98563.03
2023-03-29T14:10:54.669Z,98564.59
2023-03-29T14:14:08.526Z,98559.31
2023-03-29T14:17:20.552Z,98561.97
2023-03-29T14:20:25.597Z,98552.16
2023-03-29T14:23:34.010Z,98555.25
2023-03-29T14:26:38.534Z,98547.75
2023-03-29T14:29:47.734Z,98552.28
2023-03-29T14:32:52.686Z,98544.38
2023-03-29T14:35:57.456Z,98534.63
2023-03-29T14:39:05.814Z,98530.25
2023-03-29T14:42:20.835Z,98548.25
2023-03-29T14:45:30.512Z,98524.06
2023-03-29T14:48:39.271Z,98523.91
2023-03-29T14:51:47.349Z,98521.72
2023-03-29T14:55:10.803Z,98527.91
2023-03-29T14:58:22.866Z,98523.28
2023-03-29T15:01:30.781Z,98525.28
2023-03-29T15:04:37.867Z,98526.38
2023-03-29T15:07:45.049Z,98522.03
2023-03-29T15:10:52.261Z,98528.56
2023-03-29T15:14:03.907Z,98526.69
2023-03-29T15:17:43.114Z,98531.50
2023-03-29T15:20:56.678Z,98528.38
2023-03-29T15:24:02.125Z,98535.97
2023-03-29T15:27:14.802Z,98523.75
2023-03-29T15:30:21.792Z,98529.50
2023-03-29T15:33:34.743Z,98529.97
2023-03-29T15:36:42.904Z,98526.41
2023-03-29T15:39:48.573Z,98525.94
2023-03-29T15:46:23.967Z,98515.50
2023-03-29T15:49:38.364Z,98515.38
2023-03-29T15:52:43.401Z,98519.22
2023-03-29T15:55:50.788Z,98521.44
2023-03-29T15:58:55.252Z,98524.34
2023-03-29T16:02:01.381Z,98520.63
2023-03-29T16:05:11.250Z,98521.09
2023-03-29T16:08:15.993Z,98526.34
2023-03-29T16:11:22.517Z,98522.63
2023-03-29T16:14:37.673Z,98522.47
2023-03-29T16:17:57.634Z,98524.47
2023-03-29T16:21:23.530Z,98528.69
2023-03-29T16:28:31.583Z,98524.50
2023-03-29T16:35:53.811Z,98520.16
2023-03-29T16:38:59.925Z,98520.31
2023-03-29T16:42:15.245Z,98521.44
2023-03-29T16:45:27.487Z,98505.88
2023-03-29T16:48:32.217Z,98516.75
2023-03-29T16:51:36.517Z,98512.69
2023-03-29T16:54:44.164Z,98507.75
2023-03-29T16:57:51.008Z,98504.94
2023-03-29T17:00:58.152Z,98508.84
2023-03-29T17:04:11.085Z,98508.50
2023-03-29T17:07:15.211Z,98508.50
2023-03-29T17:10:24.730Z,98511.59
2023-03-29T17:13:32.029Z,98515.31
2023-03-29T17:16:38.427Z,98514.88
2023-03-29T17:19:44.268Z,98526.63
2023-03-29T17:22:52.730Z,98533.41
2023-03-29T17:26:01.627Z,98546.78
2023-03-29T17:29:08.693Z,98543.31
2023-03-29T17:32:13.344Z,98535.69
2023-03-29T17:35:18.990Z,98547.97
2023-03-29T17:38:27.177Z,98538.91
2023-03-29T17:41:36.369Z,98554.44
2023-03-29T17:44:41.541Z,98551.28
2023-03-29T17:47:46.142Z,98562.00
2023-03-29T17:50:50.936Z,98554.22
2023-03-29T17:53:57.236Z,98561.50
2023-03-29T17:57:04.741Z,98564.13
2023-03-29T18:00:12.880Z,98565.16
2023-03-29T18:03:19.528Z,98554.88
2023-03-29T18:06:23.991Z,98559.75
2023-03-29T18:09:30.631Z,98565.28
2023-03-29T18:12:38.901Z,98568.00
2023-03-29T18:15:46.541Z,98579.75
2023-03-29T18:18:52.502Z,98570.47
2023-03-29T18:22:00.138Z,98571.84
2023-03-29T18:25:09.570Z,98576.63
2023-03-29T18:28:16.410Z,98582.22
2023-03-29T18:31:29.007Z,98594.28
2023-03-29T18:34:35.048Z,98585.38
2023-03-29T18:37:40.588Z,98594.66
2023-03-29T18:40:46.253Z,98598.78
2023-03-29T18:43:57.777Z,98592.41
2023-03-29T18:47:05.234Z,98594.44
2023-03-29T18:50:12.844Z,98589.84
2023-03-29T18:53:29.023Z,98593.38
2023-03-29T18:56:42.191Z,98593.00
2023-03-29T19:00:12.827Z,98587.06
2023-03-29T19:03:17.296Z,98589.50
2023-03-29T19:06:22.014Z,98596.66
2023-03-29T19:09:30.602Z,98582.25
2023-03-29T19:12:37.401Z,98591.88
2023-03-29T19:15:45.782Z,98599.84
2023-03-29T19:18:51.929Z,98597.34
2023-03-29T19:22:02.369Z,98600.47
2023-03-29T19:25:14.047Z,98596.72
2023-03-29T19:31:49.657Z,98591.66
2023-03-29T19:35:10.972Z,98591.22
2023-03-29T19:39:02.507Z,98587.16
2023-03-29T19:42:09.744Z,98583.06
2023-03-29T19:45:13.692Z,98587.78
2023-03-29T19:48:23.938Z,98593.56
2023-03-29T19:51:28.951Z,98584.78
2023-03-29T19:54:33.024Z,98585.34
2023-03-29T19:57:42.805Z,98585.34
2023-03-29T20:00:47.241Z,98586.56
2023-03-29T20:03:52.863Z,98581.88
2023-03-29T20:07:02.165Z,98578.88
2023-03-29T20:10:06.862Z,98571.44
2023-03-29T20:13:11.579Z,98581.00
2023-03-29T20:16:17.322Z,98575.56
2023-03-29T20:19:36.724Z,98578.03
2023-03-29T20:22:45.592Z,98574.13
2023-03-29T20:25:50.955Z,98581.25
2023-03-29T20:28:55.634Z,98583.47
2023-03-29T20:32:00.230Z,98578.56
2023-03-29T20:35:21.489Z,98582.13
2023-03-29T20:38:27.916Z,98583.03
2023-03-29T20:41:35.907Z,98584.56
2023-03-29T20:44:40.420Z,98579.91
2023-03-29T20:47:50.613Z,98583.81
2023-03-29T20:51:04.701Z,98584.22
2023-03-29T20:54:11.538Z,98581.34
2023-03-29T20:57:18.102Z,98580.25
2023-03-29T21:00:25.135Z,98584.91
2023-03-29T21:03:29.674Z,98573.44
2023-03-29T21:06:40.120Z,98581.66
2023-03-29T21:09:48.480Z,98582.91
2023-03-29T21:12:54.495Z,98580.66
2023-03-29T21:15:58.816Z,98593.59
2023-03-29T21:19:02.965Z,98587.22
2023-03-29T21:22:09.080Z,98578.31
2023-03-29T21:25:15.675Z,98591.56
2023-03-29T21:28:22.545Z,98589.91
2023-03-29T21:31:28.411Z,98586.88
2023-03-29T21:34:32.429Z,98584.75
2023-03-29T21:37:37.625Z,98583.16
2023-03-29T21:40:41.746Z,98586.16
2023-03-29T21:43:47.272Z,98585.13
2023-03-29T21:46:56.126Z,98589.84
2023-03-29T21:50:01.239Z,98580.44
2023-03-29T21:53:08.781Z,98577.56
2023-03-29T21:56:16.257Z,98570.75
2023-03-29T21:59:20.745Z,98568.41
2023-03-29T22:02:26.034Z,98576.97
2023-03-29T22:05:30.833Z,98583.47
2023-03-29T22:08:38.997Z,98578.56
2023-03-29T22:11:46.129Z,98587.94
2023-03-29T22:14:50.383Z,98588.94
2023-03-29T22:17:57.878Z,98575.13
2023-03-29T22:21:08.897Z,98585.72
2023-03-29T22:24:14.918Z,98584.31
2023-03-29T22:27:19.298Z,98580.00
2023-03-29T22:30:23.800Z,98581.34
2023-03-29T22:33:27.420Z,98579.19
2023-03-29T22:36:33.250Z,98575.88
2023-03-29T22:39:39.108Z,98578.09
2023-03-29T22:42:43.334Z,98570.53
2023-03-29T22:45:47.170Z,98577.00
2023-03-29T22:48:53.392Z,98574.13
2023-03-29T22:51:58.177Z,98568.78
2023-03-29T22:55:03.619Z,98559.97
2023-03-29T22:58:07.446Z,98559.00
2023-03-29T23:01:12.117Z,98558.44
2023-03-29T23:04:16.427Z,98557.31
2023-03-29T23:07:21.471Z,98569.22
2023-03-29T23:10:29.098Z,98557.88
2023-03-29T23:13:35.493Z,98553.41
2023-03-29T23:16:42.434Z,98564.41
2023-03-29T23:19:46.769Z,98566.09
2023-03-29T23:22:50.607Z,98563.31
2023-03-29T23:25:58.002Z,98557.75
2023-03-29T23:29:02.500Z,98554.63
2023-03-29T23:32:06.977Z,98556.75
2023-03-29T23:35:11.382Z,98566.09
2023-03-29T23:38:15.556Z,98558.09
2023-03-29T23:41:21.073Z,98566.97
2023-03-29T23:44:27.896Z,98571.13
2023-03-29T23:47:31.914Z,98569.47
2023-03-29T23:50:36.046Z,98572.00
2023-03-29T23:53:40.560Z,98579.91
2023-03-29T23:56:46.898Z,98579.78
2023-03-29T23:59:52.856Z,98582.47
